createdAt,value
2022-12-05T00:01:24.754Z,5.01
2022-12-05T00:06:56.515Z,5.01
2022-12-05T00:12:28.359Z,5.03
2022-12-05T00:18:00.081Z,5.01
2022-12-05T00:23:31.789Z,5.06
2022-12-05T00:29:03.541Z,5.04
2022-12-05T00:34:41.298Z,5.06
2022-12-05T00:40:13.197Z,5.04
2022-12-05T00:45:45.069Z,5.04
2022-12-05T00:51:22.678Z,5.01
2022-12-05T00:56:54.472Z,4.99
2022-12-05T01:02:32.273Z,4.97
2022-12-05T01:08:10.169Z,4.96
2022-12-05T01:13:47.760Z,4.93
2022-12-05T01:19:19.527Z,4.96
2022-12-05T01:24:51.187Z,5.00
2022-12-05T01:30:23.214Z,5.00
2022-12-05T01:41:24.741Z,5.03
2022-12-05T01:46:56.393Z,5.00
2022-12-05T01:52:28.361Z,5.01
2022-12-05T01:58:05.936Z,5.00
2022-12-05T02:09:21.153Z,4.90
2022-12-05T02:14:59.035Z,4.84
2022-12-05T02:20:36.827Z,4.77
2022-12-05T02:26:14.374Z,4.72
2022-12-05T02:31:52.984Z,4.65
2022-12-05T02:37:25.166Z,4.65
2022-12-05T02:39:37.336Z,4.65
2022-12-05T02:45:15.248Z,4.61
2022-12-05T02:50:47.114Z,4.58
2022-12-05T02:56:18.789Z,4.61
2022-12-05T03:01:56.440Z,4.59
2022-12-05T03:07:28.120Z,4.61
2022-12-05T03:12:59.379Z,4.62
2022-12-05T03:18:30.678Z,4.62
2022-12-05T03:24:08.164Z,4.68
2022-12-05T03:29:46.168Z,4.68
2022-12-05T03:35:18.599Z,4.72
2022-12-05T03:40:55.813Z,4.76
2022-12-05T03:46:33.432Z,4.76
2022-12-05T03:52:10.905Z,4.76
2022-12-05T03:57:48.574Z,4.80
2022-12-05T04:03:26.407Z,4.83
2022-12-05T04:09:04.244Z,4.89
2022-12-05T04:14:41.655Z,4.84
2022-12-05T04:20:13.522Z,4.84
2022-12-05T04:25:46.619Z,4.87
2022-12-05T04:31:18.077Z,4.93
2022-12-05T04:36:55.331Z,4.99
2022-12-05T04:42:33.066Z,5.03
2022-12-05T04:48:04.960Z,5.01
2022-12-05T04:53:36.707Z,5.07
2022-12-05T04:59:08.493Z,5.08
2022-12-05T05:04:40.147Z,5.17
2022-12-05T05:10:11.956Z,5.18
2022-12-05T05:15:43.846Z,5.27
2022-12-05T05:21:21.455Z,5.31
2022-12-05T05:26:58.979Z,5.43
2022-12-05T05:32:30.558Z,5.41
2022-12-05T05:38:02.040Z,5.46
2022-12-05T05:43:39.953Z,5.49
2022-12-05T05:49:11.656Z,5.55
2022-12-05T05:54:43.224Z,5.59
2022-12-05T06:00:20.762Z,5.65
2022-12-05T06:05:57.806Z,5.70
2022-12-05T06:11:29.110Z,5.76
2022-12-05T06:17:00.805Z,5.79
2022-12-05T06:22:32.673Z,5.83
2022-12-05T06:28:10.339Z,5.86
2022-12-05T06:33:42.217Z,5.94
2022-12-05T06:39:13.829Z,5.97
2022-12-05T06:44:45.422Z,6.07
2022-12-05T06:50:16.825Z,6.07
2022-12-05T06:55:48.524Z,6.13
2022-12-05T07:01:20.123Z,6.15
2022-12-05T07:06:51.714Z,6.20
2022-12-05T07:12:23.504Z,6.25
2022-12-05T07:17:55.279Z,6.29
2022-12-05T07:23:26.978Z,6.38
2022-12-05T07:28:58.807Z,6.43
2022-12-05T07:34:30.698Z,6.50
2022-12-05T07:40:02.748Z,6.56
2022-12-05T07:51:06.148Z,6.66
2022-12-05T07:56:39.205Z,6.67
2022-12-05T08:02:10.025Z,6.70
2022-12-05T08:07:41.456Z,6.77
2022-12-05T08:13:13.731Z,6.80
2022-12-05T08:18:46.053Z,6.87
2022-12-05T08:24:18.116Z,6.88
2022-12-05T08:29:49.565Z,6.95
2022-12-05T08:35:21.594Z,7.03
2022-12-05T08:40:53.266Z,7.08
2022-12-05T08:46:25.133Z,7.15
2022-12-05T08:51:57.022Z,7.29
2022-12-05T08:57:29.046Z,7.35
2022-12-05T09:03:00.820Z,7.49
2022-12-05T09:08:32.617Z,7.61
2022-12-05T09:14:04.373Z,7.81
2022-12-05T09:19:36.225Z,7.86
2022-12-05T09:25:07.877Z,7.94
2022-12-05T09:30:39.706Z,7.96
2022-12-05T09:36:11.340Z,7.96
2022-12-05T09:41:48.999Z,7.93
2022-12-05T09:52:50.263Z,7.97
2022-12-05T09:58:21.705Z,8.00
2022-12-05T10:03:53.098Z,8.02
2022-12-05T10:09:24.878Z,8.02
2022-12-05T10:14:56.919Z,8.04
2022-12-05T10:20:28.449Z,8.05
2022-12-05T10:26:00.231Z,8.14
2022-12-05T10:31:32.377Z,8.19
2022-12-05T10:37:05.672Z,8.33
2022-12-05T10:42:37.166Z,8.42
2022-12-05T10:48:09.404Z,8.54
2022-12-05T10:53:40.990Z,8.60
2022-12-05T10:59:12.785Z,8.70
2022-12-05T11:04:44.594Z,8.77
2022-12-05T11:10:16.156Z,8.97
2022-12-05T11:15:53.724Z,9.07
2022-12-05T11:21:19.588Z,9.29
2022-12-05T11:26:51.801Z,9.40
2022-12-05T11:32:23.624Z,9.58
2022-12-05T11:37:55.859Z,9.64
2022-12-05T11:43:27.910Z,9.68
2022-12-05T11:49:00.012Z,9.68
2022-12-05T11:55:03.326Z,9.70
2022-12-05T12:00:04.223Z,9.74
2022-12-05T12:05:36.227Z,9.78
2022-12-05T12:11:08.751Z,9.75
2022-12-05T12:16:40.641Z,9.73
2022-12-05T12:22:12.480Z,9.58
2022-12-05T12:27:44.876Z,9.53
2022-12-05T12:38:51.113Z,9.32
2022-12-05T12:44:19.509Z,9.25
2022-12-05T12:49:51.955Z,9.21
2022-12-05T12:55:23.792Z,9.15
2022-12-05T13:00:56.948Z,9.11
2022-12-05T13:06:28.620Z,9.04
2022-12-05T13:12:00.334Z,9.02
2022-12-05T13:17:32.367Z,8.95
2022-12-05T13:23:07.867Z,8.92
2022-12-05T13:28:36.477Z,8.80
2022-12-05T13:39:40.663Z,8.49
2022-12-05T13:45:12.969Z,8.43
2022-12-05T13:50:45.549Z,8.31
2022-12-05T13:56:17.727Z,8.25
2022-12-05T14:01:55.689Z,8.16
2022-12-05T14:07:21.886Z,8.12
2022-12-05T14:12:53.764Z,8.04
2022-12-05T14:18:26.076Z,8.00
2022-12-05T14:23:58.262Z,7.93
2022-12-05T14:29:30.298Z,7.88
2022-12-05T14:35:02.840Z,7.86
2022-12-05T14:40:35.027Z,7.86
2022-12-05T14:46:07.458Z,7.83
2022-12-05T14:51:39.443Z,7.81
2022-12-05T14:57:11.681Z,7.77
2022-12-05T15:02:43.594Z,7.71
2022-12-05T15:08:15.890Z,7.73
2022-12-05T15:13:47.941Z,7.69
2022-12-05T15:19:19.806Z,7.66
2022-12-05T15:24:57.499Z,7.60
2022-12-05T15:30:29.483Z,7.56
2022-12-05T15:36:01.425Z,7.47
2022-12-05T15:41:39.764Z,7.42
2022-12-05T15:47:11.844Z,7.35
2022-12-05T15:52:44.130Z,7.35
2022-12-05T15:54:55.726Z,7.35
2022-12-05T16:02:46.769Z,7.35
2022-12-05T16:08:18.593Z,7.33
2022-12-05T16:13:50.280Z,7.33
2022-12-05T16:19:28.449Z,7.29
2022-12-05T16:25:06.282Z,7.28
2022-12-05T16:30:38.202Z,7.32
2022-12-05T16:36:16.283Z,7.31
2022-12-05T16:41:48.157Z,7.33
2022-12-05T16:47:20.096Z,7.36
2022-12-05T16:52:52.223Z,7.38
2022-12-05T16:58:24.406Z,7.39
2022-12-05T17:03:56.310Z,7.36
2022-12-05T17:09:28.610Z,7.38
2022-12-05T17:15:01.443Z,7.39
2022-12-05T17:20:38.918Z,7.42
2022-12-05T17:26:10.653Z,7.43
2022-12-05T17:31:42.573Z,7.45
2022-12-05T17:37:14.263Z,7.47
2022-12-05T17:42:46.022Z,7.47
2022-12-05T17:48:23.565Z,7.45
2022-12-05T17:53:55.693Z,7.43
2022-12-05T17:59:27.529Z,7.41
2022-12-05T18:07:20.017Z,0.00
2022-12-05T18:12:51.621Z,7.38
2022-12-05T18:18:25.486Z,7.36
2022-12-05T18:23:57.137Z,7.32
2022-12-05T18:29:35.101Z,7.29
2022-12-05T18:35:12.567Z,7.25
2022-12-05T18:40:39.039Z,7.25
2022-12-05T18:46:11.256Z,7.25
2022-12-05T18:51:42.796Z,7.25
2022-12-05T18:57:14.992Z,7.22
2022-12-05T19:02:47.115Z,7.19
2022-12-05T19:08:25.099Z,7.18
2022-12-05T19:13:57.072Z,7.19
2022-12-05T19:19:28.898Z,7.16
2022-12-05T19:25:01.187Z,7.16
2022-12-05T19:30:38.953Z,7.08
2022-12-05T19:36:10.623Z,6.98
2022-12-05T19:41:42.364Z,6.88
2022-12-05T19:47:13.938Z,6.82
2022-12-05T19:52:51.825Z,6.72
2022-12-05T19:58:23.905Z,6.66
2022-12-05T20:09:25.752Z,6.48
2022-12-05T20:14:57.437Z,6.36
2022-12-05T20:20:29.696Z,6.31
2022-12-05T20:26:01.640Z,6.21
2022-12-05T20:31:40.462Z,6.18
2022-12-05T20:42:46.462Z,5.98
2022-12-05T20:48:14.498Z,5.89
2022-12-05T20:53:46.593Z,5.87
2022-12-05T20:59:18.165Z,5.80
2022-12-05T21:04:49.905Z,5.73
2022-12-05T21:10:21.985Z,5.73
2022-12-05T21:15:54.665Z,5.70
2022-12-05T21:26:56.388Z,5.65
2022-12-05T21:32:28.166Z,5.65
2022-12-05T21:37:59.788Z,5.61
2022-12-05T21:43:31.834Z,5.63
2022-12-05T21:49:03.432Z,5.61
2022-12-05T21:54:35.507Z,5.58
2022-12-05T22:05:37.195Z,5.62
2022-12-05T22:11:09.456Z,5.66
2022-12-05T22:16:41.749Z,5.63
2022-12-05T22:22:13.883Z,5.65
2022-12-05T22:27:45.972Z,5.66
2022-12-05T22:33:17.822Z,5.65
2022-12-05T22:38:49.874Z,5.63
2022-12-05T22:44:22.095Z,5.65
2022-12-05T22:49:54.602Z,5.63
2022-12-05T22:55:26.637Z,5.66
2022-12-05T23:06:28.156Z,5.66
2022-12-05T23:12:00.281Z,5.70
2022-12-05T23:17:32.598Z,5.70
2022-12-05T23:23:04.822Z,5.75
2022-12-05T23:28:37.024Z,5.76
2022-12-05T23:34:09.259Z,5.82
2022-12-05T23:39:41.370Z,5.86
2022-12-05T23:45:13.292Z,5.87
2022-12-05T23:50:45.481Z,5.87
2022-12-05T23:56:17.145Z,5.92
